sensor_id;sensor_type;location;lat;lon;timestamp;pressure;altitude;pressure_sealevel;temperature;humidity
48848;BME280;36611;51.638;5.784;2023-02-17T00:03:36;101853.19;;;14.47;63.41
48848;BME280;36611;51.638;5.784;2023-02-17T00:06:08;101858.59;;;14.47;63.32
48848;BME280;36611;51.638;5.784;2023-02-17T00:08:35;101864.00;;;14.47;63.21
48848;BME280;36611;51.638;5.784;2023-02-17T00:11:02;101859.56;;;14.46;63.11
48848;BME280;36611;51.638;5.784;2023-02-17T00:13:29;101856.84;;;14.46;63.14
48848;BME280;36611;51.638;5.784;2023-02-17T00:15:55;101856.84;;;14.46;63.11
48848;BME280;36611;51.638;5.784;2023-02-17T00:18:22;101846.03;;;14.46;62.76
48848;BME280;36611;51.638;5.784;2023-02-17T00:20:49;101849.72;;;14.45;63.23
48848;BME280;36611;51.638;5.784;2023-02-17T00:23:16;101851.44;;;14.46;63.05
48848;BME280;36611;51.638;5.784;2023-02-17T00:25:43;101846.03;;;14.46;63.09
48848;BME280;36611;51.638;5.784;2023-02-17T00:28:10;101852.41;;;14.45;63.10
48848;BME280;36611;51.638;5.784;2023-02-17T00:30:37;101846.03;;;14.46;63.11
48848;BME280;36611;51.638;5.784;2023-02-17T00:33:04;101850.38;;;14.49;62.94
48848;BME280;36611;51.638;5.784;2023-02-17T00:35:31;101838.69;;;14.48;62.78
48848;BME280;36611;51.638;5.784;2023-02-17T00:37:58;101840.41;;;14.49;63.12
48848;BME280;36611;51.638;5.784;2023-02-17T00:40:25;101837.72;;;14.49;63.41
48848;BME280;36611;51.638;5.784;2023-02-17T00:42:52;101832.19;;;14.51;63.16
48848;BME280;36611;51.638;5.784;2023-02-17T00:45:20;101832.94;;;14.53;62.81
48848;BME280;36611;51.638;5.784;2023-02-17T00:47:47;101833.81;;;14.53;62.90
48848;BME280;36611;51.638;5.784;2023-02-17T00:50:19;101824.72;;;14.54;63.06
48848;BME280;36611;51.638;5.784;2023-02-17T00:52:46;101823.66;;;14.57;62.87
48848;BME280;36611;51.638;5.784;2023-02-17T00:55:13;101821.06;;;14.55;62.51
48848;BME280;36611;51.638;5.784;2023-02-17T00:57:39;101821.06;;;14.55;62.98
48848;BME280;36611;51.638;5.784;2023-02-17T01:00:06;101815.66;;;14.55;63.02
48848;BME280;36611;51.638;5.784;2023-02-17T01:02:34;101821.91;;;14.56;62.73
48848;BME280;36611;51.638;5.784;2023-02-17T01:05:01;101820.06;;;14.56;62.78
48848;BME280;36611;51.638;5.784;2023-02-17T01:07:29;101818.25;;;14.57;62.78
48848;BME280;36611;51.638;5.784;2023-02-17T01:09:56;101820.94;;;14.57;62.83
48848;BME280;36611;51.638;5.784;2023-02-17T01:12:22;101823.66;;;14.57;62.58
48848;BME280;36611;51.638;5.784;2023-02-17T01:14:50;101819.09;;;14.57;62.76
48848;BME280;36611;51.638;5.784;2023-02-17T01:17:16;101820.94;;;14.57;62.46
48848;BME280;36611;51.638;5.784;2023-02-17T01:19:43;101824.50;;;14.57;62.44
48848;BME280;36611;51.638;5.784;2023-02-17T01:22:10;101809.16;;;14.58;62.71
48848;BME280;36611;51.638;5.784;2023-02-17T01:24:37;101811.00;;;14.57;62.84
48848;BME280;36611;51.638;5.784;2023-02-17T01:27:04;101811.00;;;14.57;62.33
48848;BME280;36611;51.638;5.784;2023-02-17T01:29:31;101812.72;;;14.58;62.55
48848;BME280;36611;51.638;5.784;2023-02-17T01:31:57;101807.31;;;14.58;62.71
48848;BME280;36611;51.638;5.784;2023-02-17T01:34:25;101819.84;;;14.59;62.56
48848;BME280;36611;51.638;5.784;2023-02-17T01:36:52;101809.03;;;14.59;62.50
48848;BME280;36611;51.638;5.784;2023-02-17T01:39:19;101805.59;;;14.57;62.45
48848;BME280;36611;51.638;5.784;2023-02-17T01:41:46;101801.91;;;14.58;62.40
48848;BME280;36611;51.638;5.784;2023-02-17T01:44:18;101798.22;;;14.59;62.22
48848;BME280;36611;51.638;5.784;2023-02-17T01:46:49;101799.19;;;14.58;62.22
48848;BME280;36611;51.638;5.784;2023-02-17T01:49:28;101800.94;;;14.59;62.31
48848;BME280;36611;51.638;5.784;2023-02-17T01:52:15;101800.94;;;14.59;62.17
48848;BME280;36611;51.638;5.784;2023-02-17T01:55:05;101806.44;;;14.58;62.23
48848;BME280;36611;51.638;5.784;2023-02-17T01:57:36;101802.88;;;14.57;62.34
48848;BME280;36611;51.638;5.784;2023-02-17T02:00:06;101802.78;;;14.59;62.18
48848;BME280;36611;51.638;5.784;2023-02-17T02:02:38;101806.34;;;14.59;62.34
48848;BME280;36611;51.638;5.784;2023-02-17T02:05:08;101805.47;;;14.59;62.27
48848;BME280;36611;51.638;5.784;2023-02-17T02:07:39;101809.03;;;14.59;61.93
48848;BME280;36611;51.638;5.784;2023-02-17T02:10:08;101819.84;;;14.59;61.96
48848;BME280;36611;51.638;5.784;2023-02-17T02:12:37;101810.00;;;14.58;62.08
48848;BME280;36611;51.638;5.784;2023-02-17T02:15:07;101801.91;;;14.58;62.15
48848;BME280;36611;51.638;5.784;2023-02-17T02:34:51;101772.84;;;14.49;61.65
48848;BME280;36611;51.638;5.784;2023-02-17T02:37:34;101776.53;;;14.48;61.59
48848;BME280;36611;51.638;5.784;2023-02-17T02:40:04;101767.66;;;14.46;61.81
48848;BME280;36611;51.638;5.784;2023-02-17T02:42:34;101764.09;;;14.46;61.98
48848;BME280;36611;51.638;5.784;2023-02-17T02:45:05;101752.41;;;14.45;61.84
48848;BME280;36611;51.638;5.784;2023-02-17T02:50:16;101747.13;;;14.44;61.62
48848;BME280;36611;51.638;5.784;2023-02-17T02:55:40;101746.34;;;14.42;61.58
48848;BME280;36611;51.638;5.784;2023-02-17T02:58:30;101731.97;;;14.41;61.59
48848;BME280;36611;51.638;5.784;2023-02-17T03:01:16;101733.81;;;14.41;61.23
48848;BME280;36611;51.638;5.784;2023-02-17T03:04:27;101717.59;;;14.41;61.28
48848;BME280;36611;51.638;5.784;2023-02-17T03:07:07;101724.84;;;14.40;61.54
48848;BME280;36611;51.638;5.784;2023-02-17T03:09:35;101715.97;;;14.38;61.22
48848;BME280;36611;51.638;5.784;2023-02-17T03:12:03;101713.50;;;14.35;61.27
48848;BME280;36611;51.638;5.784;2023-02-17T03:14:35;101731.66;;;14.33;61.46
48848;BME280;36611;51.638;5.784;2023-02-17T03:17:03;101730.78;;;14.32;61.43
48848;BME280;36611;51.638;5.784;2023-02-17T03:19:29;101729.94;;;14.32;61.43
48848;BME280;36611;51.638;5.784;2023-02-17T03:22:03;101732.75;;;14.30;61.50
48848;BME280;36611;51.638;5.784;2023-02-17T03:24:33;101735.34;;;14.32;61.06
48848;BME280;36611;51.638;5.784;2023-02-17T03:27:00;101730.91;;;14.31;61.15
48848;BME280;36611;51.638;5.784;2023-02-17T03:29:27;101728.22;;;14.31;61.28
48848;BME280;36611;51.638;5.784;2023-02-17T03:31:54;101725.38;;;14.32;61.38
48848;BME280;36611;51.638;5.784;2023-02-17T03:34:21;101727.97;;;14.34;60.94
48848;BME280;36611;51.638;5.784;2023-02-17T03:36:47;101740.75;;;14.32;61.23
48848;BME280;36611;51.638;5.784;2023-02-17T03:39:14;101727.22;;;14.32;61.03
48848;BME280;36611;51.638;5.784;2023-02-17T03:41:42;101730.91;;;14.31;60.95
48848;BME280;36611;51.638;5.784;2023-02-17T03:44:08;101731.03;;;14.29;60.96
48848;BME280;36611;51.638;5.784;2023-02-17T03:46:38;101734.59;;;14.30;61.42
48848;BME280;36611;51.638;5.784;2023-02-17T03:49:05;101732.84;;;14.29;60.71
48848;BME280;36611;51.638;5.784;2023-02-17T03:51:31;101721.31;;;14.27;61.04
48848;BME280;36611;51.638;5.784;2023-02-17T03:53:58;101722.06;;;14.29;60.94
48848;BME280;36611;51.638;5.784;2023-02-17T03:56:24;101720.00;;;14.32;60.86
48848;BME280;36611;51.638;5.784;2023-02-17T03:58:55;101725.38;;;14.32;60.94
48848;BME280;36611;51.638;5.784;2023-02-17T04:01:23;101713.59;;;14.34;60.98
48848;BME280;36611;51.638;5.784;2023-02-17T04:03:50;101710.78;;;14.35;60.83
48848;BME280;36611;51.638;5.784;2023-02-17T04:06:17;101708.09;;;14.35;61.14
48848;BME280;36611;51.638;5.784;2023-02-17T04:08:43;101715.34;;;14.35;60.98
48848;BME280;36611;51.638;5.784;2023-02-17T04:11:10;101718.03;;;14.35;60.77
48848;BME280;36611;51.638;5.784;2023-02-17T04:13:37;101727.97;;;14.34;60.90
48848;BME280;36611;51.638;5.784;2023-02-17T04:16:04;101727.13;;;14.34;61.05
48848;BME280;36611;51.638;5.784;2023-02-17T04:18:32;101721.72;;;14.34;60.83
48848;BME280;36611;51.638;5.784;2023-02-17T04:20:59;101716.31;;;14.34;61.00
48848;BME280;36611;51.638;5.784;2023-02-17T04:23:26;101718.03;;;14.35;60.87
48848;BME280;36611;51.638;5.784;2023-02-17T04:25:53;101720.75;;;14.35;60.69
48848;BME280;36611;51.638;5.784;2023-02-17T04:28:21;101706.38;;;14.34;60.72
48848;BME280;36611;51.638;5.784;2023-02-17T04:30:49;101706.47;;;14.32;60.81
48848;BME280;36611;51.638;5.784;2023-02-17T04:33:17;101712.75;;;14.33;60.81
48848;BME280;36611;51.638;5.784;2023-02-17T04:35:46;101718.16;;;14.33;60.75
48848;BME280;36611;51.638;5.784;2023-02-17T04:38:13;101718.16;;;14.33;60.99
48848;BME280;36611;51.638;5.784;2023-02-17T04:40:41;101715.44;;;14.33;60.87
48848;BME280;36611;51.638;5.784;2023-02-17T04:43:08;101722.69;;;14.32;60.67
48848;BME280;36611;51.638;5.784;2023-02-17T04:45:35;101723.56;;;14.33;60.87
48848;BME280;36611;51.638;5.784;2023-02-17T04:48:03;101723.56;;;14.33;60.87
48848;BME280;36611;51.638;5.784;2023-02-17T04:50:29;101722.69;;;14.32;60.71
48848;BME280;36611;51.638;5.784;2023-02-17T04:52:56;101712.63;;;14.35;61.12
48848;BME280;36611;51.638;5.784;2023-02-17T04:55:23;101712.63;;;14.35;60.61
48848;BME280;36611;51.638;5.784;2023-02-17T04:57:49;101700.97;;;14.34;60.77
48848;BME280;36611;51.638;5.784;2023-02-17T05:00:16;101706.38;;;14.34;60.65
48848;BME280;36611;51.638;5.784;2023-02-17T05:02:43;101701.94;;;14.33;60.92
48848;BME280;36611;51.638;5.784;2023-02-17T05:05:09;101701.94;;;14.33;60.73
48848;BME280;36611;51.638;5.784;2023-02-17T05:07:41;101693.81;;;14.33;60.77
48848;BME280;36611;51.638;5.784;2023-02-17T05:10:08;101700.09;;;14.34;60.75
48848;BME280;36611;51.638;5.784;2023-02-17T05:12:35;101683.03;;;14.33;60.85
48848;BME280;36611;51.638;5.784;2023-02-17T05:15:02;101690.16;;;14.34;60.85
48848;BME280;36611;51.638;5.784;2023-02-17T05:17:29;101694.59;;;14.35;61.14
48848;BME280;36611;51.638;5.784;2023-02-17T05:19:56;101694.59;;;14.35;61.12
48848;BME280;36611;51.638;5.784;2023-02-17T05:22:23;101695.44;;;14.36;61.05
48848;BME280;36611;51.638;5.784;2023-02-17T05:24:50;101692.75;;;14.36;60.98
48848;BME280;36611;51.638;5.784;2023-02-17T05:27:17;101698.16;;;14.36;60.78
48848;BME280;36611;51.638;5.784;2023-02-17T05:29:44;101686.47;;;14.35;61.15
48848;BME280;36611;51.638;5.784;2023-02-17T05:32:11;101692.75;;;14.36;60.78
48848;BME280;36611;51.638;5.784;2023-02-17T05:34:38;101709.94;;;14.35;60.97
48848;BME280;36611;51.638;5.784;2023-02-17T05:37:05;101708.97;;;14.36;61.32
48848;BME280;36611;51.638;5.784;2023-02-17T05:39:31;101700.97;;;14.34;60.83
48848;BME280;36611;51.638;5.784;2023-02-17T05:41:58;101693.81;;;14.33;60.96
48848;BME280;36611;51.638;5.784;2023-02-17T05:44:24;101704.63;;;14.33;61.04
48848;BME280;36611;51.638;5.784;2023-02-17T05:46:51;101687.56;;;14.32;61.41
48848;BME280;36611;51.638;5.784;2023-02-17T05:49:18;101710.03;;;14.33;60.91
48848;BME280;36611;51.638;5.784;2023-02-17T05:51:44;101709.19;;;14.32;61.23
48848;BME280;36611;51.638;5.784;2023-02-17T05:54:12;101703.66;;;14.34;61.34
48848;BME280;36611;51.638;5.784;2023-02-17T05:56:39;101704.63;;;14.33;61.06
48848;BME280;36611;51.638;5.784;2023-02-17T05:59:05;101713.72;;;14.32;61.25
48848;BME280;36611;51.638;5.784;2023-02-17T06:01:32;101719.13;;;14.32;61.16
48848;BME280;36611;51.638;5.784;2023-02-17T06:04:00;101708.31;;;14.32;61.18
48848;BME280;36611;51.638;5.784;2023-02-17T06:06:27;101714.59;;;14.32;61.18
48848;BME280;36611;51.638;5.784;2023-02-17T06:08:54;101715.44;;;14.33;61.45
48848;BME280;36611;51.638;5.784;2023-02-17T06:11:20;101709.19;;;14.32;61.34
48848;BME280;36611;51.638;5.784;2023-02-17T06:13:47;101700.22;;;14.32;61.23
48848;BME280;36611;51.638;5.784;2023-02-17T06:16:14;101679.56;;;14.31;61.51
48848;BME280;36611;51.638;5.784;2023-02-17T06:18:40;101678.72;;;14.30;61.30
48848;BME280;36611;51.638;5.784;2023-02-17T06:21:07;101700.22;;;14.32;61.23
48848;BME280;36611;51.638;5.784;2023-02-17T06:23:48;101693.19;;;14.29;61.48
48848;BME280;36611;51.638;5.784;2023-02-17T06:26:15;101686.81;;;14.30;61.62
48848;BME280;36611;51.638;5.784;2023-02-17T06:28:44;101706.69;;;14.29;61.53
48848;BME280;36611;51.638;5.784;2023-02-17T06:31:10;101697.72;;;14.29;61.80
48848;BME280;36611;51.638;5.784;2023-02-17T06:33:37;101694.16;;;14.28;61.50
48848;BME280;36611;51.638;5.784;2023-02-17T06:36:04;101689.75;;;14.27;61.76
48848;BME280;36611;51.638;5.784;2023-02-17T06:38:31;101680.66;;;14.28;61.53
48848;BME280;36611;51.638;5.784;2023-02-17T06:40:58;101684.22;;;14.29;61.60
48848;BME280;36611;51.638;5.784;2023-02-17T06:43:25;101677.09;;;14.28;61.50
48848;BME280;36611;51.638;5.784;2023-02-17T06:45:51;101691.47;;;14.28;61.94
48848;BME280;36611;51.638;5.784;2023-02-17T06:48:18;101694.16;;;14.28;61.98
48848;BME280;36611;51.638;5.784;2023-02-17T06:50:44;101684.22;;;14.29;61.66
48848;BME280;36611;51.638;5.784;2023-02-17T06:53:11;101692.31;;;14.29;62.22
48848;BME280;36611;51.638;5.784;2023-02-17T06:55:37;101696.75;;;14.30;61.73
48848;BME280;36611;51.638;5.784;2023-02-17T06:58:05;101700.44;;;14.29;62.17
48848;BME280;36611;51.638;5.784;2023-02-17T07:00:32;101692.22;;;14.30;62.14
48848;BME280;36611;51.638;5.784;2023-02-17T07:02:59;101690.25;;;14.32;62.10
48848;BME280;36611;51.638;5.784;2023-02-17T07:05:26;101689.28;;;14.34;62.20
48848;BME280;36611;51.638;5.784;2023-02-17T07:07:56;101695.44;;;14.36;62.11
48848;BME280;36611;51.638;5.784;2023-02-17T07:10:23;101691.66;;;14.38;61.83
48848;BME280;36611;51.638;5.784;2023-02-17T07:12:50;101700.63;;;14.39;61.87
48848;BME280;36611;51.638;5.784;2023-02-17T07:15:17;101690.69;;;14.39;61.76
48848;BME280;36611;51.638;5.784;2023-02-17T07:17:43;101689.81;;;14.39;62.18
48848;BME280;36611;51.638;5.784;2023-02-17T07:20:10;101687.88;;;14.41;62.00
48848;BME280;36611;51.638;5.784;2023-02-17T07:22:38;101693.25;;;14.41;62.19
48848;BME280;36611;51.638;5.784;2023-02-17T07:25:05;101689.59;;;14.42;62.00
48848;BME280;36611;51.638;5.784;2023-02-17T07:27:34;101688.72;;;14.41;62.31
48848;BME280;36611;51.638;5.784;2023-02-17T07:30:02;101689.50;;;14.43;62.22
48848;BME280;36611;51.638;5.784;2023-02-17T07:32:29;101679.56;;;14.44;62.45
48848;BME280;36611;51.638;5.784;2023-02-17T07:34:56;101681.16;;;14.46;62.41
48848;BME280;36611;51.638;5.784;2023-02-17T07:37:23;101676.63;;;14.47;62.30
48848;BME280;36611;51.638;5.784;2023-02-17T07:39:49;101688.06;;;14.50;61.90
48848;BME280;36611;51.638;5.784;2023-02-17T07:42:17;101688.94;;;14.51;61.92
48848;BME280;36611;51.638;5.784;2023-02-17T07:44:48;101675.44;;;14.51;61.89
48848;BME280;36611;51.638;5.784;2023-02-17T07:47:15;101682.66;;;14.50;61.99
48848;BME280;36611;51.638;5.784;2023-02-17T07:49:41;101678.00;;;14.52;62.21
48848;BME280;36611;51.638;5.784;2023-02-17T07:52:08;101670.88;;;14.51;62.27
48848;BME280;36611;51.638;5.784;2023-02-17T07:54:35;101667.19;;;14.52;61.90
48848;BME280;36611;51.638;5.784;2023-02-17T07:57:01;101668.94;;;14.53;62.45
48848;BME280;36611;51.638;5.784;2023-02-17T07:59:28;101666.09;;;14.55;62.09
48848;BME280;36611;51.638;5.784;2023-02-17T08:01:55;101662.31;;;14.57;62.15
48848;BME280;36611;51.638;5.784;2023-02-17T08:04:22;101666.63;;;14.60;62.12
48848;BME280;36611;51.638;5.784;2023-02-17T08:06:48;101667.25;;;14.63;62.10
48848;BME280;36611;51.638;5.784;2023-02-17T08:09:16;101658.91;;;14.67;62.02
48848;BME280;36611;51.638;5.784;2023-02-17T08:12:01;101663.13;;;14.71;61.99
48848;BME280;36611;51.638;5.784;2023-02-17T08:15:00;101678.25;;;14.73;61.95
48848;BME280;36611;51.638;5.784;2023-02-17T08:17:28;101689.81;;;14.75;62.14
48848;BME280;36611;51.638;5.784;2023-02-17T08:19:54;101684.28;;;14.77;62.20
48848;BME280;36611;51.638;5.784;2023-02-17T08:22:21;101678.63;;;14.80;62.42
48848;BME280;36611;51.638;5.784;2023-02-17T08:24:48;101674.97;;;14.81;61.86
48848;BME280;36611;51.638;5.784;2023-02-17T08:27:15;101670.28;;;14.83;61.93
48848;BME280;36611;51.638;5.784;2023-02-17T08:29:42;101674.59;;;14.85;61.81
48848;BME280;36611;51.638;5.784;2023-02-17T08:32:09;101692.47;;;14.88;61.83
48848;BME280;36611;51.638;5.784;2023-02-17T08:34:36;101691.38;;;14.90;61.88
48848;BME280;36611;51.638;5.784;2023-02-17T08:37:04;101691.16;;;14.93;62.12
48848;BME280;36611;51.638;5.784;2023-02-17T08:39:32;101693.63;;;14.97;61.81
48848;BME280;36611;51.638;5.784;2023-02-17T08:41:59;101694.25;;;15.00;62.12
48848;BME280;36611;51.638;5.784;2023-02-17T08:44:26;101684.19;;;15.02;62.00
48848;BME280;36611;51.638;5.784;2023-02-17T08:46:53;101693.78;;;15.06;61.88
48848;BME280;36611;51.638;5.784;2023-02-17T08:49:22;101688.25;;;15.08;62.01
48848;BME280;36611;51.638;5.784;2023-02-17T08:51:50;101697.00;;;15.11;62.18
48848;BME280;36611;51.638;5.784;2023-02-17T08:54:17;101695.78;;;15.15;62.06
48848;BME280;36611;51.638;5.784;2023-02-17T08:56:44;101705.38;;;15.19;62.04
48848;BME280;36611;51.638;5.784;2023-02-17T08:59:11;101701.47;;;15.23;62.00
48848;BME280;36611;51.638;5.784;2023-02-17T09:01:38;101698.53;;;15.26;61.92
48848;BME280;36611;51.638;5.784;2023-02-17T09:04:07;101706.28;;;15.31;61.81
48848;BME280;36611;51.638;5.784;2023-02-17T09:06:40;101711.69;;;15.31;61.68
48848;BME280;36611;51.638;5.784;2023-02-17T09:09:10;101721.44;;;15.34;61.73
48848;BME280;36611;51.638;5.784;2023-02-17T09:11:37;101712.19;;;15.36;61.54
48848;BME280;36611;51.638;5.784;2023-02-17T09:14:05;101724.88;;;15.36;61.92
48848;BME280;36611;51.638;5.784;2023-02-17T09:16:32;101729.31;;;15.37;61.95
48848;BME280;36611;51.638;5.784;2023-02-17T09:18:59;101738.28;;;15.37;61.61
48848;BME280;36611;51.638;5.784;2023-02-17T09:21:25;101739.16;;;15.38;61.88
48848;BME280;36611;51.638;5.784;2023-02-17T09:23:52;101740.03;;;15.38;61.56
48848;BME280;36611;51.638;5.784;2023-02-17T09:26:19;101744.34;;;15.41;61.57
48848;BME280;36611;51.638;5.784;2023-02-17T09:28:46;101739.66;;;15.43;61.58
48848;BME280;36611;51.638;5.784;2023-02-17T09:31:18;101744.97;;;15.44;61.67
48848;BME280;36611;51.638;5.784;2023-02-17T09:33:46;101748.41;;;15.46;61.45
48848;BME280;36611;51.638;5.784;2023-02-17T09:36:16;101753.69;;;15.48;61.40
48848;BME280;36611;51.638;5.784;2023-02-17T09:38:43;101749.91;;;15.50;61.22
48848;BME280;36611;51.638;5.784;2023-02-17T09:43:53;101745.75;;;15.57;61.21
48848;BME280;36611;51.638;5.784;2023-02-17T09:46:46;101753.69;;;15.61;61.43
48848;BME280;36611;51.638;5.784;2023-02-17T09:49:31;101756.88;;;15.66;61.70
48848;BME280;36611;51.638;5.784;2023-02-17T09:55:02;101761.94;;;15.70;61.34
48848;BME280;36611;51.638;5.784;2023-02-17T09:57:34;101761.94;;;15.70;61.19
48848;BME280;36611;51.638;5.784;2023-02-17T10:00:10;101766.38;;;15.71;61.27
48848;BME280;36611;51.638;5.784;2023-02-17T10:02:58;101760.97;;;15.71;61.16
48848;BME280;36611;51.638;5.784;2023-02-17T10:05:34;101759.84;;;15.74;61.03
48848;BME280;36611;51.638;5.784;2023-02-17T10:08:07;101768.84;;;15.74;61.07
48848;BME280;36611;51.638;5.784;2023-02-17T10:10:43;101767.88;;;15.75;61.08
48848;BME280;36611;51.638;5.784;2023-02-17T10:13:14;101755.94;;;15.78;60.63
48848;BME280;36611;51.638;5.784;2023-02-17T10:15:47;101750.38;;;15.79;60.62
48848;BME280;36611;51.638;5.784;2023-02-17T10:19:07;101742.03;;;15.82;60.88
48848;BME280;36611;51.638;5.784;2023-02-17T10:21:35;101752.38;;;15.88;60.52
48848;BME280;36611;51.638;5.784;2023-02-17T10:24:04;101757.44;;;15.93;60.55
48848;BME280;36611;51.638;5.784;2023-02-17T10:32:23;101745.63;;;16.05;60.38
48848;BME280;36611;51.638;5.784;2023-02-17T10:35:17;101741.56;;;16.11;60.11
48848;BME280;36611;51.638;5.784;2023-02-17T10:37:51;101730.34;;;16.15;60.29
48848;BME280;36611;51.638;5.784;2023-02-17T10:40:23;101736.38;;;16.19;60.27
48848;BME280;36611;51.638;5.784;2023-02-17T10:42:54;101734.16;;;16.24;59.93
48848;BME280;36611;51.638;5.784;2023-02-17T10:48:44;101753.91;;;16.37;60.04
48848;BME280;36611;51.638;5.784;2023-02-17T10:51:14;101754.63;;;16.39;59.79
48848;BME280;36611;51.638;5.784;2023-02-17T10:53:46;101760.06;;;16.39;59.59
48848;BME280;36611;51.638;5.784;2023-02-17T10:56:25;101772.75;;;16.39;59.51
48848;BME280;36611;51.638;5.784;2023-02-17T10:58:58;101777.44;;;16.37;59.09
48848;BME280;36611;51.638;5.784;2023-02-17T11:01:28;101772.13;;;16.35;59.08
48848;BME280;36611;51.638;5.784;2023-02-17T11:04:04;101778.50;;;16.34;58.94
48848;BME280;36611;51.638;5.784;2023-02-17T11:06:36;101774.06;;;16.33;58.83
48848;BME280;36611;51.638;5.784;2023-02-17T11:09:06;101760.66;;;16.32;59.12
48848;BME280;36611;51.638;5.784;2023-02-17T11:11:35;101751.66;;;16.31;58.86
48848;BME280;36611;51.638;5.784;2023-02-17T11:14:11;101762.38;;;16.33;59.12
48848;BME280;36611;51.638;5.784;2023-02-17T11:16:51;101772.22;;;16.34;58.94
48848;BME280;36611;51.638;5.784;2023-02-17T11:19:32;101774.06;;;16.33;58.85
48848;BME280;36611;51.638;5.784;2023-02-17T11:22:04;101766.94;;;16.32;59.09
48848;BME280;36611;51.638;5.784;2023-02-17T11:24:33;101750.91;;;16.29;59.02
48848;BME280;36611;51.638;5.784;2023-02-17T11:27:08;101734.78;;;16.28;58.78
48848;BME280;36611;51.638;5.784;2023-02-17T11:29:36;101731.06;;;16.29;58.89
48848;BME280;36611;51.638;5.784;2023-02-17T11:32:05;101727.38;;;16.30;58.49
48848;BME280;36611;51.638;5.784;2023-02-17T11:34:37;101724.53;;;16.31;58.65
48848;BME280;36611;51.638;5.784;2023-02-17T11:39:39;101709.00;;;16.33;58.81
48848;BME280;36611;51.638;5.784;2023-02-17T11:42:26;101719.84;;;16.33;58.72
48848;BME280;36611;51.638;5.784;2023-02-17T11:44:55;101738.63;;;16.36;58.64
48848;BME280;36611;51.638;5.784;2023-02-17T11:47:38;101737.63;;;16.37;58.94
48848;BME280;36611;51.638;5.784;2023-02-17T11:50:22;101739.97;;;16.42;58.43
48848;BME280;36611;51.638;5.784;2023-02-17T12:09:44;101763.38;;;16.54;58.38
48848;BME280;36611;51.638;5.784;2023-02-17T12:26:35;101765.97;;;16.44;58.04
48848;BME280;36611;51.638;5.784;2023-02-17T12:34:52;101772.25;;;16.45;58.17
48848;BME280;36611;51.638;5.784;2023-02-17T12:37:26;101777.66;;;16.45;58.02
48848;BME280;36611;51.638;5.784;2023-02-17T12:40:02;101777.66;;;16.45;58.57
48848;BME280;36611;51.638;5.784;2023-02-17T12:42:33;101782.22;;;16.44;58.37
48848;BME280;36611;51.638;5.784;2023-02-17T12:45:16;101781.38;;;16.44;58.13
48848;BME280;36611;51.638;5.784;2023-02-17T12:47:50;101780.38;;;16.45;58.47
48848;BME280;36611;51.638;5.784;2023-02-17T12:50:24;101784.69;;;16.47;58.55
48848;BME280;36611;51.638;5.784;2023-02-17T12:52:55;101781.97;;;16.47;58.11
48848;BME280;36611;51.638;5.784;2023-02-17T12:55:52;101783.97;;;16.45;58.50
48848;BME280;36611;51.638;5.784;2023-02-17T12:58:27;101789.25;;;16.47;58.25
48848;BME280;36611;51.638;5.784;2023-02-17T13:00:59;101784.09;;;16.44;57.91
48848;BME280;36611;51.638;5.784;2023-02-17T13:03:33;101787.03;;;16.41;58.27
48848;BME280;36611;51.638;5.784;2023-02-17T13:11:12;101800.09;;;16.36;58.22
48848;BME280;36611;51.638;5.784;2023-02-17T13:13:39;101799.34;;;16.34;57.81
48848;BME280;36611;51.638;5.784;2023-02-17T13:16:11;101810.19;;;16.34;57.95
48848;BME280;36611;51.638;5.784;2023-02-17T13:18:41;101813.88;;;16.33;57.85
48848;BME280;36611;51.638;5.784;2023-02-17T13:21:26;101821.16;;;16.32;58.04
48848;BME280;36611;51.638;5.784;2023-02-17T13:24:05;101831.00;;;16.33;58.20
48848;BME280;36611;51.638;5.784;2023-02-17T13:26:37;101822.88;;;16.33;58.25
48848;BME280;36611;51.638;5.784;2023-02-17T13:34:42;101836.53;;;16.32;58.10
48848;BME280;36611;51.638;5.784;2023-02-17T13:37:25;101849.34;;;16.30;57.97
48848;BME280;36611;51.638;5.784;2023-02-17T13:42:52;101847.50;;;16.30;57.87
48848;BME280;36611;51.638;5.784;2023-02-17T13:45:26;101848.50;;;16.29;58.08
48848;BME280;36611;51.638;5.784;2023-02-17T13:47:59;101850.47;;;16.27;58.20
48848;BME280;36611;51.638;5.784;2023-02-17T13:50:34;101850.59;;;16.26;57.76
48848;BME280;36611;51.638;5.784;2023-02-17T13:53:18;101858.72;;;16.26;58.22
48848;BME280;36611;51.638;5.784;2023-02-17T13:55:46;101847.00;;;16.25;57.94
48848;BME280;36611;51.638;5.784;2023-02-17T13:58:13;101858.72;;;16.26;57.86
48848;BME280;36611;51.638;5.784;2023-02-17T14:00:42;101867.84;;;16.25;57.95
48848;BME280;36611;51.638;5.784;2023-02-17T14:03:27;101862.66;;;16.21;57.96
48848;BME280;36611;51.638;5.784;2023-02-17T14:05:56;101857.22;;;16.21;57.80
48848;BME280;36611;51.638;5.784;2023-02-17T14:08:37;101869.31;;;16.17;57.98
48848;BME280;36611;51.638;5.784;2023-02-17T14:11:13;101869.41;;;16.16;57.98
48848;BME280;36611;51.638;5.784;2023-02-17T14:13:45;101870.53;;;16.13;58.08
48848;BME280;36611;51.638;5.784;2023-02-17T14:16:33;101888.75;;;16.11;58.05
48848;BME280;36611;51.638;5.784;2023-02-17T14:19:07;101885.06;;;16.12;58.22
48848;BME280;36611;51.638;5.784;2023-02-17T14:21:36;101879.63;;;16.12;58.15
48848;BME280;36611;51.638;5.784;2023-02-17T14:24:04;101891.34;;;16.13;58.28
48848;BME280;36611;51.638;5.784;2023-02-17T14:26:38;101875.09;;;16.13;58.15
48848;BME280;36611;51.638;5.784;2023-02-17T14:29:07;101870.41;;;16.15;58.28
48848;BME280;36611;51.638;5.784;2023-02-17T14:31:38;101872.25;;;16.14;57.92
48848;BME280;36611;51.638;5.784;2023-02-17T14:34:05;101871.16;;;16.17;57.92
48848;BME280;36611;51.638;5.784;2023-02-17T14:36:35;101864.75;;;16.18;58.23
48848;BME280;36611;51.638;5.784;2023-02-17T14:39:05;101850.22;;;16.19;57.99